sensor_id;sensor_type;location;lat;lon;timestamp;pressure;altitude;pressure_sealevel;temperature;humidity
12197;BME280;6161;43.014;25.840;2022-09-16T00:00:15;98853.97;;;21.13;nan
12197;BME280;6161;43.014;25.840;2022-09-16T00:02:40;98917.97;;;21.10;nan
12197;BME280;6161;43.014;25.840;2022-09-16T00:07:32;98820.75;;;20.92;nan
12197;BME280;6161;43.014;25.840;2022-09-16T00:09:57;98887.84;;;21.05;nan
12197;BME280;6161;43.014;25.840;2022-09-16T00:12:23;98922.56;;;20.98;nan
12197;BME280;6161;43.014;25.840;2022-09-16T00:14:51;98892.72;;;21.03;nan
12197;BME280;6161;43.014;25.840;2022-09-16T00:19:42;98881.88;;;20.96;nan
12197;BME280;6161;43.014;25.840;2022-09-16T00:22:07;98851.78;;;20.91;nan
12197;BME280;6161;43.014;25.840;2022-09-16T00:24:33;98887.22;;;20.91;nan
12197;BME280;6161;43.014;25.840;2022-09-16T00:26:58;98877.38;;;20.90;nan
12197;BME280;6161;43.014;25.840;2022-09-16T00:29:24;98886.25;;;20.85;nan
12197;BME280;6161;43.014;25.840;2022-09-16T00:31:49;98857.34;;;20.84;nan
12197;BME280;6161;43.014;25.840;2022-09-16T00:34:15;98874.38;;;20.80;nan
12197;BME280;6161;43.014;25.840;2022-09-16T00:36:40;98904.81;;;20.77;nan
12197;BME280;6161;43.014;25.840;2022-09-16T00:39:05;98903.63;;;20.73;nan
12197;BME280;6161;43.014;25.840;2022-09-16T00:41:31;98861.06;;;20.72;nan
12197;BME280;6161;43.014;25.840;2022-09-16T00:44:02;98855.47;;;20.67;nan
12197;BME280;6161;43.014;25.840;2022-09-16T00:46:35;98895.78;;;20.64;nan
12197;BME280;6161;43.014;25.840;2022-09-16T00:49:10;98993.00;;;20.64;nan
12197;BME280;6161;43.014;25.840;2022-09-16T00:54:03;98874.09;;;20.51;nan
12197;BME280;6161;43.014;25.840;2022-09-16T00:56:34;98872.47;;;20.50;nan
12197;BME280;6161;43.014;25.840;2022-09-16T00:59:15;98911.41;;;20.51;nan
12197;BME280;6161;43.014;25.840;2022-09-16T01:01:42;98846.22;;;20.37;nan
12197;BME280;6161;43.014;25.840;2022-09-16T01:06:39;98920.66;;;20.50;nan
12197;BME280;6161;43.014;25.840;2022-09-16T01:09:05;98857.00;;;20.44;nan
12197;BME280;6161;43.014;25.840;2022-09-16T01:11:31;98880.91;;;20.42;nan
12197;BME280;6161;43.014;25.840;2022-09-16T01:13:58;98897.72;;;20.39;nan
12197;BME280;6161;43.014;25.840;2022-09-16T01:30:45;98888.50;;;20.21;nan
12197;BME280;6161;43.014;25.840;2022-09-16T01:43:50;98919.97;;;19.99;nan
12197;BME280;6161;43.014;25.840;2022-09-16T01:46:36;98874.81;;;19.91;nan
12197;BME280;6161;43.014;25.840;2022-09-16T01:57:04;98929.63;;;19.45;nan
12197;BME280;6161;43.014;25.840;2022-09-16T02:04:50;98923.66;;;19.61;nan
12197;BME280;6161;43.014;25.840;2022-09-16T02:07:22;98906.88;;;19.64;nan
12197;BME280;6161;43.014;25.840;2022-09-16T02:10:00;98936.41;;;19.61;nan
12197;BME280;6161;43.014;25.840;2022-09-16T02:15:06;98946.63;;;19.65;nan
12197;BME280;6161;43.014;25.840;2022-09-16T02:17:35;99026.56;;;19.71;nan
12197;BME280;6161;43.014;25.840;2022-09-16T02:20:08;98919.16;;;19.73;nan
12197;BME280;6161;43.014;25.840;2022-09-16T02:22:48;98934.91;;;19.65;nan
12197;BME280;6161;43.014;25.840;2022-09-16T02:25:17;98903.38;;;19.82;nan
12197;BME280;6161;43.014;25.840;2022-09-16T02:27:45;98927.28;;;19.80;nan
12197;BME280;6161;43.014;25.840;2022-09-16T02:30:15;98951.56;;;19.75;nan
12197;BME280;6161;43.014;25.840;2022-09-16T02:32:47;98963.69;;;19.79;nan
12197;BME280;6161;43.014;25.840;2022-09-16T02:35:16;98926.44;;;19.79;nan
12197;BME280;6161;43.014;25.840;2022-09-16T02:37:52;99030.31;;;19.70;nan
12197;BME280;6161;43.014;25.840;2022-09-16T02:40:26;98892.56;;;19.75;nan
12197;BME280;6161;43.014;25.840;2022-09-16T02:42:52;98925.59;;;19.79;nan
12197;BME280;6161;43.014;25.840;2022-09-16T02:45:20;98938.16;;;19.80;nan
12197;BME280;6161;43.014;25.840;2022-09-16T02:54:24;98923.44;;;19.88;nan
12197;BME280;6161;43.014;25.840;2022-09-16T02:56:55;98984.97;;;19.89;nan
12197;BME280;6161;43.014;25.840;2022-09-16T03:01:47;98918.53;;;19.96;nan
12197;BME280;6161;43.014;25.840;2022-09-16T03:04:15;98904.44;;;19.99;nan
12197;BME280;6161;43.014;25.840;2022-09-16T03:06:41;98976.09;;;20.00;nan
12197;BME280;6161;43.014;25.840;2022-09-16T03:09:09;98913.84;;;20.04;nan
12197;BME280;6161;43.014;25.840;2022-09-16T03:23:55;98945.94;;;19.95;nan
12197;BME280;6161;43.014;25.840;2022-09-16T03:26:44;98951.03;;;19.91;nan
12197;BME280;6161;43.014;25.840;2022-09-16T03:29:18;98952.00;;;19.97;nan
12197;BME280;6161;43.014;25.840;2022-09-16T03:37:05;98904.44;;;19.99;nan
12197;BME280;6161;43.014;25.840;2022-09-16T03:42:03;98947.06;;;20.12;nan
12197;BME280;6161;43.014;25.840;2022-09-16T03:44:31;98951.22;;;20.15;nan
12197;BME280;6161;43.014;25.840;2022-09-16T03:46:57;98929.81;;;20.18;nan
12197;BME280;6161;43.014;25.840;2022-09-16T03:49:23;98912.19;;;20.21;nan
12197;BME280;6161;43.014;25.840;2022-09-16T03:51:48;98921.78;;;20.23;nan
12197;BME280;6161;43.014;25.840;2022-09-16T03:54:13;98898.34;;;20.22;nan
12197;BME280;6161;43.014;25.840;2022-09-16T03:56:39;98927.44;;;20.22;nan
12197;BME280;6161;43.014;25.840;2022-09-16T03:59:04;98935.25;;;20.18;nan
12197;BME280;6161;43.014;25.840;2022-09-16T04:01:30;98940.91;;;20.17;nan
12197;BME280;6161;43.014;25.840;2022-09-16T04:03:55;98844.56;;;19.99;nan
12197;BME280;6161;43.014;25.840;2022-09-16T04:06:21;99004.75;;;20.03;nan
12197;BME280;6161;43.014;25.840;2022-09-16T04:08:46;98958.31;;;20.16;nan
12197;BME280;6161;43.014;25.840;2022-09-16T04:11:15;98865.38;;;20.12;nan
12197;BME280;6161;43.014;25.840;2022-09-16T04:13:40;98862.88;;;20.11;nan
12197;BME280;6161;43.014;25.840;2022-09-16T04:16:06;98956.66;;;20.15;nan
12197;BME280;6161;43.014;25.840;2022-09-16T04:18:33;98968.16;;;20.17;nan
12197;BME280;6161;43.014;25.840;2022-09-16T04:21:00;98965.00;;;20.20;nan
12197;BME280;6161;43.014;25.840;2022-09-16T04:23:27;98959.16;;;20.16;nan
12197;BME280;6161;43.014;25.840;2022-09-16T04:25:57;98884.50;;;20.24;nan
12197;BME280;6161;43.014;25.840;2022-09-16T04:30:48;98919.22;;;20.29;nan
12197;BME280;6161;43.014;25.840;2022-09-16T04:33:14;98960.84;;;20.17;nan
12197;BME280;6161;43.014;25.840;2022-09-16T04:35:39;98923.63;;;20.30;nan
12197;BME280;6161;43.014;25.840;2022-09-16T04:38:05;98925.06;;;20.32;nan
12197;BME280;6161;43.014;25.840;2022-09-16T04:40:30;98952.28;;;20.32;nan
12197;BME280;6161;43.014;25.840;2022-09-16T04:42:56;98979.53;;;20.32;nan
12197;BME280;6161;43.014;25.840;2022-09-16T04:45:21;98968.19;;;20.35;nan
12197;BME280;6161;43.014;25.840;2022-09-16T04:47:46;99008.72;;;20.43;nan
12197;BME280;6161;43.014;25.840;2022-09-16T04:50:12;98943.28;;;20.50;nan
12197;BME280;6161;43.014;25.840;2022-09-16T04:52:37;98960.16;;;20.59;nan
12197;BME280;6161;43.014;25.840;2022-09-16T04:57:29;98953.09;;;20.88;nan
12197;BME280;6161;43.014;25.840;2022-09-16T05:02:21;98975.03;;;21.23;nan
12197;BME280;6161;43.014;25.840;2022-09-16T05:04:47;99026.91;;;21.35;nan
12197;BME280;6161;43.014;25.840;2022-09-16T05:07:12;99020.38;;;21.55;nan
12197;BME280;6161;43.014;25.840;2022-09-16T05:09:37;98991.47;;;21.77;nan
12197;BME280;6161;43.014;25.840;2022-09-16T05:14:30;99015.13;;;22.07;nan
12197;BME280;6161;43.014;25.840;2022-09-16T05:16:55;98989.97;;;22.17;nan
12197;BME280;6161;43.014;25.840;2022-09-16T05:19:21;98960.41;;;22.25;nan
12197;BME280;6161;43.014;25.840;2022-09-16T05:21:47;99023.94;;;22.32;nan
12197;BME280;6161;43.014;25.840;2022-09-16T05:24:12;99000.88;;;22.40;nan
12197;BME280;6161;43.014;25.840;2022-09-16T05:26:40;98970.44;;;22.48;nan
12197;BME280;6161;43.014;25.840;2022-09-16T05:29:16;98958.56;;;22.54;nan
12197;BME280;6161;43.014;25.840;2022-09-16T05:31:43;98960.34;;;22.61;nan
12197;BME280;6161;43.014;25.840;2022-09-16T05:34:11;98988.72;;;22.71;nan
12197;BME280;6161;43.014;25.840;2022-09-16T05:36:37;98970.13;;;22.85;nan
12197;BME280;6161;43.014;25.840;2022-09-16T05:39:04;99018.72;;;22.95;nan
12197;BME280;6161;43.014;25.840;2022-09-16T05:41:30;98953.47;;;22.98;nan
12197;BME280;6161;43.014;25.840;2022-09-16T05:43:59;98991.78;;;22.98;nan
12197;BME280;6161;43.014;25.840;2022-09-16T05:46:25;98997.09;;;23.05;nan
12197;BME280;6161;43.014;25.840;2022-09-16T05:48:51;98990.22;;;23.31;nan
12197;BME280;6161;43.014;25.840;2022-09-16T05:53:44;98994.88;;;23.93;nan
12197;BME280;6161;43.014;25.840;2022-09-16T05:56:12;99007.88;;;24.20;nan
12197;BME280;6161;43.014;25.840;2022-09-16T05:58:38;99003.94;;;24.49;nan
12197;BME280;6161;43.014;25.840;2022-09-16T06:01:07;99000.22;;;24.78;nan
12197;BME280;6161;43.014;25.840;2022-09-16T06:03:34;98988.28;;;24.89;nan
12197;BME280;6161;43.014;25.840;2022-09-16T06:06:01;98981.59;;;25.29;nan
12197;BME280;6161;43.014;25.840;2022-09-16T06:08:28;98987.41;;;25.60;nan
12197;BME280;6161;43.014;25.840;2022-09-16T06:13:19;98997.88;;;26.32;nan
12197;BME280;6161;43.014;25.840;2022-09-16T06:15:52;98969.03;;;26.35;nan
12197;BME280;6161;43.014;25.840;2022-09-16T06:18:22;99004.41;;;26.58;nan
12197;BME280;6161;43.014;25.840;2022-09-16T06:23:14;99018.72;;;26.66;nan
12197;BME280;6161;43.014;25.840;2022-09-16T06:25:40;98992.97;;;26.82;nan
12197;BME280;6161;43.014;25.840;2022-09-16T06:28:06;99006.50;;;26.94;nan
12197;BME280;6161;43.014;25.840;2022-09-16T06:30:31;99044.44;;;26.87;nan
12197;BME280;6161;43.014;25.840;2022-09-16T06:32:57;99009.69;;;26.75;nan
12197;BME280;6161;43.014;25.840;2022-09-16T06:35:22;99046.00;;;26.67;nan
12197;BME280;6161;43.014;25.840;2022-09-16T06:37:52;99003.38;;;26.75;nan
12197;BME280;6161;43.014;25.840;2022-09-16T06:40:18;98986.09;;;26.84;nan
12197;BME280;6161;43.014;25.840;2022-09-16T06:42:44;98991.19;;;27.18;nan
12197;BME280;6161;43.014;25.840;2022-09-16T06:45:11;99003.63;;;27.46;nan
12197;BME280;6161;43.014;25.840;2022-09-16T06:47:37;98988.25;;;27.61;nan
12197;BME280;6161;43.014;25.840;2022-09-16T06:50:04;99021.31;;;27.71;nan
12197;BME280;6161;43.014;25.840;2022-09-16T06:52:30;99021.09;;;27.93;nan
12197;BME280;6161;43.014;25.840;2022-09-16T06:54:56;99018.31;;;28.08;nan
12197;BME280;6161;43.014;25.840;2022-09-16T06:57:22;99039.56;;;28.13;nan
12197;BME280;6161;43.014;25.840;2022-09-16T06:59:48;98922.38;;;28.00;nan
12197;BME280;6161;43.014;25.840;2022-09-16T07:02:14;99017.72;;;28.27;nan
12197;BME280;6161;43.014;25.840;2022-09-16T07:04:40;99027.38;;;28.29;nan
12197;BME280;6161;43.014;25.840;2022-09-16T07:07:06;99023.78;;;28.34;nan
12197;BME280;6161;43.014;25.840;2022-09-16T07:09:31;99026.28;;;28.30;nan
12197;BME280;6161;43.014;25.840;2022-09-16T07:11:57;99044.50;;;28.26;nan
12197;BME280;6161;43.014;25.840;2022-09-16T07:14:23;99025.19;;;28.26;nan
12197;BME280;6161;43.014;25.840;2022-09-16T07:16:49;99056.63;;;28.30;nan
12197;BME280;6161;43.014;25.840;2022-09-16T07:19:14;99020.78;;;28.46;nan
12197;BME280;6161;43.014;25.840;2022-09-16T07:21:40;99065.97;;;28.70;nan
12197;BME280;6161;43.014;25.840;2022-09-16T07:24:06;99073.09;;;28.92;nan
12197;BME280;6161;43.014;25.840;2022-09-16T07:26:34;99022.75;;;29.20;nan
12197;BME280;6161;43.014;25.840;2022-09-16T07:29:03;99034.81;;;29.40;nan
12197;BME280;6161;43.014;25.840;2022-09-16T07:31:33;99048.75;;;29.59;nan
12197;BME280;6161;43.014;25.840;2022-09-16T07:33:59;99050.06;;;29.77;nan
12197;BME280;6161;43.014;25.840;2022-09-16T07:36:40;99028.66;;;29.93;nan
12197;BME280;6161;43.014;25.840;2022-09-16T07:39:06;99064.69;;;30.17;nan
12197;BME280;6161;43.014;25.840;2022-09-16T07:41:34;99038.75;;;30.42;nan
12197;BME280;6161;43.014;25.840;2022-09-16T07:44:01;99040.66;;;30.70;nan
12197;BME280;6161;43.014;25.840;2022-09-16T07:46:29;99056.25;;;30.90;nan
12197;BME280;6161;43.014;25.840;2022-09-16T07:48:56;99049.88;;;31.14;nan
12197;BME280;6161;43.014;25.840;2022-09-16T07:51:24;99084.06;;;31.28;nan
12197;BME280;6161;43.014;25.840;2022-09-16T07:56:29;99052.66;;;31.76;nan
12197;BME280;6161;43.014;25.840;2022-09-16T07:58:55;99048.91;;;31.86;nan
12197;BME280;6161;43.014;25.840;2022-09-16T08:01:22;99071.91;;;31.86;nan
12197;BME280;6161;43.014;25.840;2022-09-16T08:03:47;99050.53;;;31.87;nan
12197;BME280;6161;43.014;25.840;2022-09-16T08:06:15;99032.78;;;31.88;nan
12197;BME280;6161;43.014;25.840;2022-09-16T08:08:41;99059.09;;;31.90;nan
12197;BME280;6161;43.014;25.840;2022-09-16T08:11:08;99029.16;;;31.87;nan
12197;BME280;6161;43.014;25.840;2022-09-16T08:13:35;99040.06;;;31.84;nan
12197;BME280;6161;43.014;25.840;2022-09-16T08:16:05;99026.72;;;31.67;nan
12197;BME280;6161;43.014;25.840;2022-09-16T08:18:31;99007.09;;;31.63;nan
12197;BME280;6161;43.014;25.840;2022-09-16T08:20:57;99035.66;;;31.83;nan
12197;BME280;6161;43.014;25.840;2022-09-16T08:23:24;99005.53;;;31.90;nan
12197;BME280;6161;43.014;25.840;2022-09-16T08:25:59;99026.84;;;32.13;nan
12197;BME280;6161;43.014;25.840;2022-09-16T08:28:25;99022.34;;;32.31;nan
12197;BME280;6161;43.014;25.840;2022-09-16T08:30:51;99000.66;;;32.33;nan
12197;BME280;6161;43.014;25.840;2022-09-16T08:33:16;99021.41;;;32.55;nan
12197;BME280;6161;43.014;25.840;2022-09-16T08:36:03;99020.88;;;32.53;nan
12197;BME280;6161;43.014;25.840;2022-09-16T08:38:30;99074.25;;;32.64;nan
12197;BME280;6161;43.014;25.840;2022-09-16T08:44:08;99025.94;;;32.78;nan
12197;BME280;6161;43.014;25.840;2022-09-16T08:46:48;99017.19;;;32.85;nan
12197;BME280;6161;43.014;25.840;2022-09-16T08:49:34;99020.38;;;33.06;nan
12197;BME280;6161;43.014;25.840;2022-09-16T08:52:08;99034.78;;;33.22;nan
12197;BME280;6161;43.014;25.840;2022-09-16T08:54:42;99081.50;;;33.47;nan
12197;BME280;6161;43.014;25.840;2022-09-16T08:57:22;99022.34;;;33.70;nan
12197;BME280;6161;43.014;25.840;2022-09-16T09:05:33;99030.03;;;34.09;nan
12197;BME280;6161;43.014;25.840;2022-09-16T09:16:09;99010.41;;;34.45;nan
12197;BME280;6161;43.014;25.840;2022-09-16T09:18:54;98985.03;;;34.47;nan
12197;BME280;6161;43.014;25.840;2022-09-16T09:21:40;98993.88;;;34.49;nan
12197;BME280;6161;43.014;25.840;2022-09-16T09:27:37;98973.59;;;34.57;nan
12197;BME280;6161;43.014;25.840;2022-09-16T09:38:29;98985.78;;;34.70;nan
12197;BME280;6161;43.014;25.840;2022-09-16T09:41:02;98959.50;;;34.53;nan
12197;BME280;6161;43.014;25.840;2022-09-16T09:54:37;98973.97;;;34.33;nan
12197;BME280;6161;43.014;25.840;2022-09-16T10:02:38;98937.91;;;34.59;nan
12197;BME280;6161;43.014;25.840;2022-09-16T10:05:06;98941.38;;;34.65;nan
12197;BME280;6161;43.014;25.840;2022-09-16T10:07:36;98943.66;;;34.63;nan
12197;BME280;6161;43.014;25.840;2022-09-16T10:10:13;98938.44;;;34.70;nan
12197;BME280;6161;43.014;25.840;2022-09-16T10:12:39;98971.22;;;34.73;nan
12197;BME280;6161;43.014;25.840;2022-09-16T10:15:05;98951.56;;;34.78;nan
12197;BME280;6161;43.014;25.840;2022-09-16T10:17:31;98954.53;;;34.82;nan
12197;BME280;6161;43.014;25.840;2022-09-16T10:20:00;98948.09;;;34.72;nan
12197;BME280;6161;43.014;25.840;2022-09-16T10:22:32;98958.44;;;34.72;nan
12197;BME280;6161;43.014;25.840;2022-09-16T10:25:00;99005.03;;;34.49;nan
12197;BME280;6161;43.014;25.840;2022-09-16T10:27:31;98956.16;;;34.43;nan
12197;BME280;6161;43.014;25.840;2022-09-16T10:30:14;98960.97;;;34.51;nan
12197;BME280;6161;43.014;25.840;2022-09-16T10:35:31;98989.28;;;34.53;nan
12197;BME280;6161;43.014;25.840;2022-09-16T10:38:25;98944.09;;;34.56;nan
12197;BME280;6161;43.014;25.840;2022-09-16T10:40:53;98939.22;;;34.62;nan
12197;BME280;6161;43.014;25.840;2022-09-16T10:43:20;98931.22;;;34.69;nan
12197;BME280;6161;43.014;25.840;2022-09-16T10:45:49;98930.50;;;34.55;nan
12197;BME280;6161;43.014;25.840;2022-09-16T10:48:22;98939.00;;;34.58;nan
12197;BME280;6161;43.014;25.840;2022-09-16T10:50:58;98933.94;;;34.51;nan
12197;BME280;6161;43.014;25.840;2022-09-16T10:53:38;98943.16;;;34.61;nan
12197;BME280;6161;43.014;25.840;2022-09-16T10:56:14;98911.72;;;34.69;nan
12197;BME280;6161;43.014;25.840;2022-09-16T10:58:40;98919.44;;;34.72;nan
12197;BME280;6161;43.014;25.840;2022-09-16T11:09:28;98925.34;;;34.88;nan
12197;BME280;6161;43.014;25.840;2022-09-16T11:22:38;98910.78;;;34.42;nan
12197;BME280;6161;43.014;25.840;2022-09-16T11:25:32;98908.13;;;33.97;nan
12197;BME280;6161;43.014;25.840;2022-09-16T11:42:15;98889.03;;;33.00;nan
12197;BME280;6161;43.014;25.840;2022-09-16T11:45:14;98897.47;;;33.09;nan
12197;BME280;6161;43.014;25.840;2022-09-16T11:53:43;98902.22;;;33.09;nan
12197;BME280;6161;43.014;25.840;2022-09-16T11:56:42;98876.09;;;33.10;nan
12197;BME280;6161;43.014;25.840;2022-09-16T11:59:23;98861.47;;;33.04;nan
12197;BME280;6161;43.014;25.840;2022-09-16T12:01:52;98873.78;;;33.12;nan
12197;BME280;6161;43.014;25.840;2022-09-16T12:04:27;98870.47;;;33.23;nan
12197;BME280;6161;43.014;25.840;2022-09-16T12:07:01;98872.81;;;33.30;nan
12197;BME280;6161;43.014;25.840;2022-09-16T12:09:50;98864.72;;;33.42;nan
12197;BME280;6161;43.014;25.840;2022-09-16T12:12:21;98872.03;;;33.38;nan
12197;BME280;6161;43.014;25.840;2022-09-16T12:14:58;98862.31;;;33.50;nan
12197;BME280;6161;43.014;25.840;2022-09-16T12:17:30;98875.06;;;33.51;nan
12197;BME280;6161;43.014;25.840;2022-09-16T12:20:08;98866.22;;;33.49;nan
12197;BME280;6161;43.014;25.840;2022-09-16T12:22:46;98855.09;;;33.49;nan
12197;BME280;6161;43.014;25.840;2022-09-16T12:25:24;98897.13;;;33.47;nan
12197;BME280;6161;43.014;25.840;2022-09-16T12:28:12;98852.50;;;33.52;nan
12197;BME280;6161;43.014;25.840;2022-09-16T12:30:46;98869.63;;;33.45;nan
12197;BME280;6161;43.014;25.840;2022-09-16T12:59:13;98898.38;;;33.18;nan
12197;BME280;6161;43.014;25.840;2022-09-16T13:01:45;98910.75;;;33.12;nan
12197;BME280;6161;43.014;25.840;2022-09-16T13:04:22;98911.19;;;33.06;nan
12197;BME280;6161;43.014;25.840;2022-09-16T13:06:52;98929.91;;;33.00;nan
12197;BME280;6161;43.014;25.840;2022-09-16T13:11:57;98918.28;;;32.84;nan
12197;BME280;6161;43.014;25.840;2022-09-16T13:14:28;98895.06;;;32.80;nan
12197;BME280;6161;43.014;25.840;2022-09-16T13:16:57;98915.97;;;32.77;nan
12197;BME280;6161;43.014;25.840;2022-09-16T13:19:34;98911.84;;;32.75;nan
12197;BME280;6161;43.014;25.840;2022-09-16T13:22:19;98917.41;;;32.75;nan
12197;BME280;6161;43.014;25.840;2022-09-16T13:37:46;98921.19;;;32.24;nan
12197;BME280;6161;43.014;25.840;2022-09-16T13:40:17;98920.25;;;32.14;nan
12197;BME280;6161;43.014;25.840;2022-09-16T13:42:44;98953.44;;;32.19;nan
12197;BME280;6161;43.014;25.840;2022-09-16T13:45:32;98931.03;;;32.16;nan
12197;BME280;6161;43.014;25.840;2022-09-16T13:48:04;98928.38;;;32.11;nan
12197;BME280;6161;43.014;25.840;2022-09-16T13:50:34;98938.13;;;32.08;nan
12197;BME280;6161;43.014;25.840;2022-09-16T13:53:17;98949.09;;;32.00;nan
12197;BME280;6161;43.014;25.840;2022-09-16T13:55:46;98925.41;;;31.88;nan
12197;BME280;6161;43.014;25.840;2022-09-16T13:58:36;98944.50;;;31.76;nan
12197;BME280;6161;43.014;25.840;2022-09-16T14:01:20;98936.03;;;31.67;nan
12197;BME280;6161;43.014;25.840;2022-09-16T14:03:58;98939.47;;;31.45;nan
12197;BME280;6161;43.014;25.840;2022-09-16T14:14:57;98968.53;;;31.05;nan
12197;BME280;6161;43.014;25.840;2022-09-16T14:17:25;98951.72;;;31.01;nan
12197;BME280;6161;43.014;25.840;2022-09-16T14:19:57;98962.03;;;30.96;nan
12197;BME280;6161;43.014;25.840;2022-09-16T14:22:23;98954.31;;;30.93;nan
12197;BME280;6161;43.014;25.840;2022-09-16T14:24:52;98954.38;;;30.87;nan
12197;BME280;6161;43.014;25.840;2022-09-16T14:27:33;98924.22;;;30.86;nan
12197;BME280;6161;43.014;25.840;2022-09-16T14:30:03;98930.97;;;30.75;nan
12197;BME280;6161;43.014;25.840;2022-09-16T14:32:34;98924.63;;;30.74;nan
12197;BME280;6161;43.014;25.840;2022-09-16T14:37:47;98908.75;;;30.80;nan
12197;BME280;6161;43.014;25.840;2022-09-16T14:40:18;98915.91;;;30.86;nan
12197;BME280;6161;43.014;25.840;2022-09-16T14:42:49;98922.50;;;30.90;nan
12197;BME280;6161;43.014;25.840;2022-09-16T14:45:16;98906.41;;;30.92;nan
12197;BME280;6161;43.014;25.840;2022-09-16T14:47:43;98928.50;;;30.97;nan
12197;BME280;6161;43.014;25.840;2022-09-16T14:50:15;98922.66;;;30.99;nan
12197;BME280;6161;43.014;25.840;2022-09-16T14:55:21;98907.38;;;31.01;nan
12197;BME280;6161;43.014;25.840;2022-09-16T14:57:47;98912.13;;;31.01;nan
12197;BME280;6161;43.014;25.840;2022-09-16T15:00:14;98908.50;;;31.00;nan
12197;BME280;6161;43.014;25.840;2022-09-16T15:02:53;98922.13;;;30.97;nan
12197;BME280;6161;43.014;25.840;2022-09-16T15:05:32;98931.03;;;30.94;nan
12197;BME280;6161;43.014;25.840;2022-09-16T15:10:33;98907.41;;;30.77;nan
12197;BME280;6161;43.014;25.840;2022-09-16T15:13:08;98922.38;;;30.76;nan
12197;BME280;6161;43.014;25.840;2022-09-16T15:15:35;98942.88;;;30.75;nan
12197;BME280;6161;43.014;25.840;2022-09-16T15:20:52;98905.91;;;30.66;nan
12197;BME280;6161;43.014;25.840;2022-09-16T15:23:24;98938.88;;;30.62;nan
12197;BME280;6161;43.014;25.840;2022-09-16T15:26:20;98918.16;;;30.60;nan
12197;BME280;6161;43.014;25.840;2022-09-16T15:28:59;98927.66;;;30.54;nan
12197;BME280;6161;43.014;25.840;2022-09-16T15:33:52;98952.66;;;30.43;nan
12197;BME280;6161;43.014;25.840;2022-09-16T15:39:00;98916.31;;;30.31;nan
12197;BME280;6161;43.014;25.840;2022-09-16T15:41:26;98929.81;;;30.33;nan
12197;BME280;6161;43.014;25.840;2022-09-16T15:43:52;98888.66;;;30.26;nan
12197;BME280;6161;43.014;25.840;2022-09-16T15:46:20;98908.72;;;30.13;nan
12197;BME280;6161;43.014;25.840;2022-09-16T15:48:58;98887.28;;;29.99;nan
12197;BME280;6161;43.014;25.840;2022-09-16T15:51:30;98872.81;;;29.78;nan
12197;BME280;6161;43.014;25.840;2022-09-16T15:54:21;98846.13;;;29.63;nan
12197;BME280;6161;43.014;25.840;2022-09-16T16:01:54;98839.66;;;29.15;nan
12197;BME280;6161;43.014;25.840;2022-09-16T16:04:25;98826.09;;;29.18;nan
12197;BME280;6161;43.014;25.840;2022-09-16T16:12:05;98905.66;;;29.16;nan
12197;BME280;6161;43.014;25.840;2022-09-16T16:17:02;98846.34;;;29.04;nan
12197;BME280;6161;43.014;25.840;2022-09-16T16:19:28;98865.97;;;29.07;nan
12197;BME280;6161;43.014;25.840;2022-09-16T16:21:54;98873.94;;;29.04;nan
12197;BME280;6161;43.014;25.840;2022-09-16T16:24:22;98867.38;;;28.99;nan
12197;BME280;6161;43.014;25.840;2022-09-16T16:26:49;98868.78;;;28.97;nan
12197;BME280;6161;43.014;25.840;2022-09-16T16:29:14;98814.13;;;28.89;nan
12197;BME280;6161;43.014;25.840;2022-09-16T16:31:40;98823.63;;;28.77;nan
12197;BME280;6161;43.014;25.840;2022-09-16T16:34:21;98844.31;;;28.80;nan
12197;BME280;6161;43.014;25.840;2022-09-16T16:36:47;98829.13;;;28.77;nan
12197;BME280;6161;43.014;25.840;2022-09-16T16:39:12;98830.03;;;28.68;nan
12197;BME280;6161;43.014;25.840;2022-09-16T16:41:38;98824.88;;;28.51;nan
12197;BME280;6161;43.014;25.840;2022-09-16T16:44:03;98843.09;;;28.42;nan
12197;BME280;6161;43.014;25.840;2022-09-16T16:48:54;98804.31;;;28.18;nan
12197;BME280;6161;43.014;25.840;2022-09-16T16:51:19;98817.66;;;27.95;nan
12197;BME280;6161;43.014;25.840;2022-09-16T16:53:46;98782.13;;;27.73;nan
12197;BME280;6161;43.014;25.840;2022-09-16T16:56:13;98784.63;;;27.54;nan
12197;BME280;6161;43.014;25.840;2022-09-16T17:03:33;98748.03;;;27.43;nan
12197;BME280;6161;43.014;25.840;2022-09-16T17:05:58;98782.16;;;27.47;nan
12197;BME280;6161;43.014;25.840;2022-09-16T17:08:24;98762.88;;;27.53;nan
12197;BME280;6161;43.014;25.840;2022-09-16T17:11:07;98781.88;;;27.59;nan
12197;BME280;6161;43.014;25.840;2022-09-16T17:13:38;98773.63;;;27.54;nan
12197;BME280;6161;43.014;25.840;2022-09-16T17:16:05;98745.00;;;27.40;nan
12197;BME280;6161;43.014;25.840;2022-09-16T17:18:35;98773.13;;;27.32;nan
12197;BME280;6161;43.014;25.840;2022-09-16T17:21:10;98763.22;;;27.31;nan
12197;BME280;6161;43.014;25.840;2022-09-16T17:23:39;98756.59;;;27.21;nan
12197;BME280;6161;43.014;25.840;2022-09-16T17:26:05;98783.31;;;27.26;nan
12197;BME280;6161;43.014;25.840;2022-09-16T17:28:33;98793.78;;;27.19;nan
12197;BME280;6161;43.014;25.840;2022-09-16T17:30:59;98802.28;;;27.07;nan
12197;BME280;6161;43.014;25.840;2022-09-16T17:33:24;98817.97;;;27.17;nan
12197;BME280;6161;43.014;25.840;2022-09-16T17:36:00;98775.56;;;27.18;nan
12197;BME280;6161;43.014;25.840;2022-09-16T17:38:27;98767.03;;;27.09;nan
12197;BME280;6161;43.014;25.840;2022-09-16T17:41:00;98765.13;;;26.94;nan
12197;BME280;6161;43.014;25.840;2022-09-16T17:43:26;98789.06;;;26.78;nan
12197;BME280;6161;43.014;25.840;2022-09-16T17:45:51;98788.50;;;26.71;nan
12197;BME280;6161;43.014;25.840;2022-09-16T17:50:42;98773.06;;;26.55;nan
12197;BME280;6161;43.014;25.840;2022-09-16T17:53:08;98769.50;;;26.54;nan
12197;BME280;6161;43.014;25.840;2022-09-16T17:55:33;98771.41;;;26.54;nan
12197;BME280;6161;43.014;25.840;2022-09-16T17:57:59;98762.06;;;26.55;nan
12197;BME280;6161;43.014;25.840;2022-09-16T18:02:50;98763.66;;;26.51;nan
12197;BME280;6161;43.014;25.840;2022-09-16T18:05:15;98773.00;;;26.45;nan
12197;BME280;6161;43.014;25.840;2022-09-16T18:07:44;98800.16;;;26.20;nan
12197;BME280;6161;43.014;25.840;2022-09-16T18:10:10;98805.06;;;26.13;nan
12197;BME280;6161;43.014;25.840;2022-09-16T18:12:35;98791.31;;;26.08;nan